KBKL/BKL METAR and TAF weather

Enter ICAO airport designator
Station Type Date Time Source
KBKL METAR 2024/05/28 21:53 UTC NOAA

KBKL 282153Z 29006KT 10SM CLR 19/14 A2992 RMK AO2 SLP129 T01890139


Station Type Date Time Source
KBKL Decoded METAR 2024/05/28 21:53 UTC NOAA

CLEVELAND BURKE LAKEFRONT, OH, United States (KBKL) 41-32N 81-40W 184M
May 28, 2024 - 05:53 PM EDT / 2024.05.28 2153 UTC
Wind: from the WNW (290 degrees) at 7 MPH (6 KT):0
Visibility: 10 mile(s):0
Sky conditions: clear
Temperature: 66.0 F (18.9 C)
Dew Point: 57.0 F (13.9 C)
Relative Humidity: 72%
Pressure (altimeter): 29.92 in. Hg (1013 hPa)
ob: KBKL 282153Z 29006KT 10SM CLR 19/14 A2992 RMK AO2 SLP129 T01890139
cycle: 22

Station Type Date Time Source
KBKL TAF UTC NOAA

Error!

Example: see airport list